Time;durP1;ratioP1;P1;durP2;ratioP2;P2;SDS_P1;SDS_P2;PMS_P1;PMS_P2;Temp;Humidity;BMP_temperature;BMP_pressure;BME280_temperature;BME280_humidity;BME280_pressure;Samples;Min_cycle;Max_cycle;Signal;HPM_P1;HPM_P2
2021/12/10 00:01:22;;;;;;;4.68;2.33;;;;;;;2.67;90.31;99778.41;4973481;28;96779;-34
2021/12/10 00:03:52;;;;;;;5.05;2.22;;;;;;;2.64;90.76;99766.06;4971937;28;101345;-35
2021/12/10 00:06:49;;;;;;;7.40;3.55;;;;;;;2.67;90.79;99765.03;4971524;28;101950;-34
2021/12/10 00:09:18;;;;;;;1.75;1.33;;;;;;;2.63;90.19;99750.97;4971414;28;122576;-34
2021/12/10 00:11:51;;;;;;;5.45;3.53;;;;;;;2.65;90.47;99758.94;4972318;28;97334;-34
2021/12/10 00:14:18;;;;;;;3.92;2.78;;;;;;;2.61;90.78;99746.63;4971531;28;100932;-35
2021/12/10 00:16:44;;;;;;;3.90;3.45;;;;;;;2.61;90.34;99738.63;4971992;28;99236;-34
2021/12/10 00:19:25;;;;;;;5.35;3.50;;;;;;;2.63;90.61;99747.44;4973496;28;96617;-34
2021/12/10 00:21:51;;;;;;;5.55;3.95;;;;;;;2.64;90.67;99746.47;4973225;28;96595;-34
2021/12/10 00:24:17;;;;;;;3.60;2.47;;;;;;;2.60;90.92;99743.09;4971899;28;100945;-34
2021/12/10 00:26:44;;;;;;;2.78;2.08;;;;;;;2.63;90.31;99739.41;4972986;28;99188;-35
2021/12/10 00:29:10;;;;;;;6.75;2.42;;;;;;;2.66;90.65;99726.75;4971905;28;96647;-34
2021/12/10 00:34:17;;;;;;;15.93;4.65;;;;;;;2.61;90.32;99701.19;4971975;28;98085;-34
2021/12/10 00:36:44;;;;;;;5.63;2.42;;;;;;;2.61;90.24;99693.16;4971714;28;100844;-34
2021/12/10 00:39:16;;;;;;;4.38;2.40;;;;;;;2.62;90.22;99682.41;4970893;28;97307;-35
2021/12/10 00:41:42;;;;;;;5.03;2.22;;;;;;;2.66;90.31;99692.00;4973096;28;96548;-34
2021/12/10 00:44:08;;;;;;;5.05;2.28;;;;;;;2.65;89.99;99679.59;4971364;28;101382;-34
2021/12/10 00:46:34;;;;;;;3.83;2.40;;;;;;;2.61;90.28;99664.63;4971430;28;100749;-34
2021/12/10 00:49:00;;;;;;;7.22;2.90;;;;;;;2.66;90.06;99675.09;4973480;28;96503;-34
2021/12/10 00:51:26;;;;;;;5.22;2.55;;;;;;;2.63;89.95;99661.91;4973169;28;96729;-34
2021/12/10 00:53:52;;;;;;;2.50;1.73;;;;;;;2.53;90.45;99642.75;4971029;28;98928;-34
2021/12/10 00:56:18;;;;;;;2.88;2.20;;;;;;;2.65;90.18;99660.03;4971704;28;101190;-34
2021/12/10 00:58:43;;;;;;;3.63;2.35;;;;;;;2.53;89.74;99638.28;4971533;28;96613;-34
2021/12/10 01:01:16;;;;;;;2.03;1.73;;;;;;;2.59;90.11;99636.25;4972421;28;96667;-34
2021/12/10 01:03:49;;;;;;;4.85;2.47;;;;;;;2.61;90.24;99635.22;4970860;28;101586;-34
2021/12/10 01:06:16;;;;;;;3.45;2.67;;;;;;;2.58;90.00;99623.84;4971044;28;101428;-35
2021/12/10 01:08:45;;;;;;;10.05;2.15;;;;;;;2.58;89.82;99614.00;4971426;28;96721;-34
2021/12/10 01:11:34;;;;;;;3.80;1.77;;;;;;;2.58;89.66;99613.16;4971367;28;96863;-34
2021/12/10 01:14:22;;;;;;;7.20;2.60;;;;;;;2.60;90.15;99620.13;4971185;28;100843;-34
2021/12/10 01:25:34;;;;;;;5.65;2.83;;;;;;;2.55;89.83;99590.06;4970449;28;97090;-35
2021/12/10 01:28:01;;;;;;;2.25;2.05;;;;;;;2.52;89.68;99579.53;4963228;28;100793;-34
2021/12/10 01:30:31;;;;;;;3.75;2.13;;;;;;;2.49;90.06;99577.88;4970607;28;97364;-35
2021/12/10 01:33:00;;;;;;;3.45;1.92;;;;;;;2.48;89.66;99576.16;4970818;28;97167;-34
2021/12/10 01:35:33;;;;;;;4.18;2.90;;;;;;;2.52;89.83;99577.72;4970768;28;100898;-34
2021/12/10 01:38:00;;;;;;;5.82;2.15;;;;;;;2.51;89.50;99584.03;4970980;28;101255;-34
2021/12/10 01:40:26;;;;;;;4.15;2.33;;;;;;;2.54;89.80;99583.00;4970930;28;96650;-34
2021/12/10 01:43:00;;;;;;;4.97;2.95;;;;;;;2.43;89.53;99554.16;4970872;28;96797;-34
2021/12/10 01:45:31;;;;;;;4.53;1.83;;;;;;;2.46;89.66;99559.34;4972137;28;99383;-34
2021/12/10 01:48:04;;;;;;;2.57;1.43;;;;;;;2.51;89.62;99569.81;4972176;28;99183;-34
2021/12/10 01:50:30;;;;;;;4.93;2.95;;;;;;;2.52;89.63;99572.38;4971022;28;96600;-34
2021/12/10 01:52:59;;;;;;;2.85;2.00;;;;;;;2.46;89.86;99554.00;4970932;28;96638;-34
2021/12/10 01:55:26;;;;;;;2.80;2.22;;;;;;;2.51;89.56;99559.13;4970093;28;100867;-34
2021/12/10 01:57:53;;;;;;;3.83;2.13;;;;;;;2.52;89.75;99559.03;4970570;28;100753;-34
2021/12/10 02:00:25;;;;;;;13.93;2.80;;;;;;;2.45;89.58;99530.00;4970826;28;97319;-35
2021/12/10 02:02:50;;;;;;;6.00;2.40;;;;;;;2.53;89.59;99530.50;4970057;28;96742;-34
2021/12/10 02:05:17;;;;;;;2.25;1.90;;;;;;;2.48;89.68;99520.03;4971760;28;99130;-35
2021/12/10 02:07:43;;;;;;;7.70;3.10;;;;;;;2.50;89.34;99509.25;4970450;28;100780;-35
2021/12/10 02:10:10;;;;;;;2.72;1.48;;;;;;;2.53;89.33;99512.66;4970765;28;96459;-35
2021/12/10 02:12:35;;;;;;;2.13;1.63;;;;;;;2.48;89.46;99496.00;4972333;28;96780;-35
2021/12/10 02:15:03;;;;;;;2.38;1.25;;;;;;;2.58;89.50;99507.09;4971885;28;97453;-35
2021/12/10 02:17:58;;;;;;;2.75;1.60;;;;;;;2.58;89.10;99504.41;4970443;28;100694;-35
2021/12/10 02:20:29;;;;;;;3.78;2.08;;;;;;;2.58;89.71;99496.41;4971579;28;96475;-34
2021/12/10 02:22:55;;;;;;;2.38;1.35;;;;;;;2.63;89.33;99485.47;4972014;28;96491;-34
2021/12/10 02:25:24;;;;;;;3.60;2.70;;;;;;;2.59;88.93;99478.53;4971383;28;98856;-34
2021/12/10 02:27:50;;;;;;;4.63;2.03;;;;;;;2.66;89.20;99483.50;4970233;28;101054;-34
2021/12/10 02:30:18;;;;;;;5.60;2.08;;;;;;;2.68;89.36;99472.72;4973186;28;96455;-34
2021/12/10 02:32:44;;;;;;;2.47;1.52;;;;;;;2.64;89.15;99458.63;4973488;28;96869;-34
2021/12/10 02:35:13;;;;;;;1.88;1.48;;;;;;;2.73;88.64;99462.66;4973704;28;100911;-34
2021/12/10 02:37:44;;;;;;;4.03;2.10;;;;;;;2.73;88.81;99451.97;4973960;28;101350;-34
2021/12/10 02:40:12;;;;;;;1.42;1.05;;;;;;;2.78;88.70;99449.91;4973677;28;96659;-34
2021/12/10 02:42:38;;;;;;;1.60;1.45;;;;;;;2.82;88.88;99439.94;4973700;28;96768;-34
2021/12/10 02:45:07;;;;;;;6.85;1.75;;;;;;;2.82;88.53;99438.13;4972881;28;100858;-34
2021/12/10 02:47:33;;;;;;;3.92;1.20;;;;;;;2.86;88.55;99442.38;4973404;28;102418;-34
2021/12/10 02:49:58;;;;;;;2.88;0.93;;;;;;;2.86;88.69;99426.31;4973546;28;96493;-34
2021/12/10 02:52:26;;;;;;;2.53;1.63;;;;;;;2.87;88.86;99427.19;4974740;28;96794;-35
2021/12/10 02:54:51;;;;;;;2.58;1.42;;;;;;;2.86;88.84;99420.97;4972942;28;101291;-34
2021/12/10 02:57:18;;;;;;;5.75;1.30;;;;;;;2.88;88.96;99412.84;4974893;28;97834;-34
2021/12/10 02:59:43;;;;;;;0.57;0.47;;;;;;;2.91;88.99;99418.06;4973428;28;96529;-34
2021/12/10 03:02:13;;;;;;;3.35;1.35;;;;;;;2.92;89.26;99409.09;4973574;28;96780;-34
2021/12/10 03:04:40;;;;;;;1.95;1.15;;;;;;;2.92;88.87;99415.28;4973309;28;100794;-35
2021/12/10 03:07:12;;;;;;;3.60;0.85;;;;;;;2.90;89.04;99403.81;4972896;28;101008;-34
2021/12/10 03:09:38;;;;;;;0.83;0.80;;;;;;;2.93;89.41;99403.66;4974230;28;96596;-34
2021/12/10 03:12:05;;;;;;;0.50;0.38;;;;;;;2.89;89.54;99385.19;4973206;28;97169;-35
2021/12/10 03:14:33;;;;;;;1.75;0.88;;;;;;;2.91;89.78;99397.53;4972880;28;101163;-34
2021/12/10 03:17:02;;;;;;;2.35;0.90;;;;;;;2.86;89.99;99388.00;4972998;28;101226;-35
2021/12/10 03:19:29;;;;;;;3.80;1.13;;;;;;;2.86;89.60;99383.53;4973098;28;96559;-34
2021/12/10 03:21:54;;;;;;;1.38;0.85;;;;;;;2.90;90.00;99387.75;4973021;28;96649;-34
2021/12/10 03:24:24;;;;;;;2.28;1.27;;;;;;;2.93;89.74;99378.69;4973936;28;99337;-34
2021/12/10 03:26:52;;;;;;;1.23;1.10;;;;;;;2.87;89.91;99369.22;4973025;28;101146;-34
2021/12/10 03:29:20;;;;;;;1.05;0.57;;;;;;;2.88;89.83;99357.56;4972894;28;96498;-34
2021/12/10 03:31:45;;;;;;;2.45;0.85;;;;;;;2.90;89.78;99361.00;4972615;28;96809;-34
2021/12/10 03:34:11;;;;;;;1.38;0.95;;;;;;;2.88;90.11;99351.34;4973698;28;97221;-35
2021/12/10 03:36:36;;;;;;;4.75;1.52;;;;;;;2.93;90.31;99362.66;4974104;28;97755;-34
2021/12/10 03:39:05;;;;;;;0.80;0.80;;;;;;;2.85;90.42;99339.00;4974044;28;96680;-35
2021/12/10 03:41:30;;;;;;;5.20;1.02;;;;;;;2.86;90.18;99342.53;4972505;28;96884;-34
2021/12/10 03:43:56;;;;;;;1.70;0.90;;;;;;;2.85;90.08;99335.47;4974035;28;97330;-34
2021/12/10 03:46:23;;;;;;;2.08;1.17;;;;;;;2.84;90.44;99331.09;4973857;28;97794;-34
2021/12/10 03:48:49;;;;;;;1.88;0.73;;;;;;;2.89;90.40;99319.19;4972339;28;96664;-34
2021/12/10 03:51:19;;;;;;;1.42;1.05;;;;;;;2.89;90.37;99310.31;4972816;28;97879;-34
2021/12/10 03:53:46;;;;;;;0.60;0.30;;;;;;;2.92;90.74;99312.81;4972052;28;101188;-34
2021/12/10 03:56:15;;;;;;;1.67;0.50;;;;;;;2.94;90.56;99305.56;4972212;28;100807;-34
2021/12/10 03:58:41;;;;;;;0.85;0.55;;;;;;;2.89;90.68;99302.28;4973177;28;96496;-35
2021/12/10 04:01:08;;;;;;;0.35;0.32;;;;;;;2.87;90.38;99283.66;4972241;28;96763;-34
2021/12/10 04:03:34;;;;;;;0.30;0.30;;;;;;;2.88;90.28;99287.19;4972143;28;101404;-34
2021/12/10 04:06:00;;;;;;;1.13;0.50;;;;;;;2.91;90.38;99293.22;4973691;28;97857;-34
2021/12/10 04:08:26;;;;;;;0.08;0.08;;;;;;;2.94;90.84;99295.72;4973924;28;96527;-35
2021/12/10 04:10:53;;;;;;;1.33;0.82;;;;;;;2.85;90.84;99273.97;4972198;28;96959;-34
2021/12/10 04:13:20;;;;;;;2.88;1.02;;;;;;;2.92;90.65;99275.38;4972057;28;101016;-34
2021/12/10 04:15:46;;;;;;;2.08;0.85;;;;;;;2.90;90.51;99272.78;4972423;28;100562;-35
2021/12/10 04:18:13;;;;;;;1.98;0.95;;;;;;;2.92;90.53;99270.88;4973333;28;96521;-34
2021/12/10 04:20:39;;;;;;;0.30;0.30;;;;;;;2.93;90.43;99267.28;4972060;28;96880;-34
2021/12/10 04:23:09;;;;;;;2.38;0.82;;;;;;;2.98;90.54;99270.53;4971271;28;100979;-34
2021/12/10 04:25:35;;;;;;;1.10;0.57;;;;;;;2.89;89.99;99259.50;4971992;28;100678;-34
2021/12/10 04:28:07;;;;;;;0.57;0.22;;;;;;;2.97;89.93;99263.44;4973530;28;96666;-34
2021/12/10 04:30:37;;;;;;;1.75;0.32;;;;;;;3.01;90.17;99257.97;4971913;28;96534;-34
2021/12/10 04:33:05;;;;;;;0.10;0.10;;;;;;;2.93;90.04;99251.22;4971725;28;101229;-34
2021/12/10 04:35:30;;;;;;;0.28;0.20;;;;;;;2.94;90.38;99231.53;4973059;28;99301;-34
2021/12/10 04:37:56;;;;;;;1.65;0.75;;;;;;;3.01;90.59;99240.09;4973486;28;96412;-34
2021/12/10 04:40:21;;;;;;;1.10;0.50;;;;;;;2.95;90.08;99230.56;4973610;28;96729;-34
2021/12/10 04:42:47;;;;;;;0.40;0.30;;;;;;;3.04;90.58;99233.69;4972655;28;99837;-34
2021/12/10 04:45:16;;;;;;;1.17;0.60;;;;;;;2.96;90.07;99213.59;4973080;28;97755;-34
2021/12/10 04:47:42;;;;;;;0.30;0.30;;;;;;;2.98;90.23;99218.88;4971224;28;97312;-34
2021/12/10 04:50:08;;;;;;;9.05;0.28;;;;;;;3.01;90.02;99224.03;4973178;28;96709;-35
2021/12/10 04:52:34;;;;;;;2.72;0.50;;;;;;;2.98;90.12;99222.41;4970913;28;100722;-34
2021/12/10 04:55:01;;;;;;;1.83;0.68;;;;;;;2.96;90.49;99202.91;4972919;28;97901;-34
2021/12/10 04:57:26;;;;;;;3.15;1.13;;;;;;;3.04;90.28;99220.34;4971287;28;96640;-34
2021/12/10 04:59:52;;;;;;;3.40;0.63;;;;;;;3.01;89.89;99208.00;4972788;28;96771;-34
2021/12/10 05:02:18;;;;;;;2.05;0.38;;;;;;;2.97;90.15;99203.75;4972296;28;97866;-34
2021/12/10 05:04:45;;;;;;;4.40;0.65;;;;;;;3.00;90.16;99205.41;4971742;28;101177;-34
2021/12/10 05:07:14;;;;;;;0.45;0.40;;;;;;;3.01;90.24;99199.13;4971535;28;96677;-34
2021/12/10 05:09:39;;;;;;;0.82;0.30;;;;;;;2.95;90.34;99187.78;4971380;28;96919;-34
2021/12/10 05:12:06;;;;;;;0.25;0.25;;;;;;;2.97;90.31;99191.25;4971748;28;99366;-34
2021/12/10 05:14:32;;;;;;;1.05;0.50;;;;;;;3.02;90.22;99192.81;4971058;28;101441;-34
2021/12/10 05:17:03;;;;;;;0.45;0.45;;;;;;;3.04;90.48;99194.44;4971271;28;96705;-34
2021/12/10 05:19:29;;;;;;;1.55;0.80;;;;;;;2.98;90.56;99184.97;4971389;28;96696;-34
2021/12/10 05:21:55;;;;;;;0.35;0.30;;;;;;;3.00;90.49;99184.00;4971180;28;101295;-34
2021/12/10 05:24:21;;;;;;;0.35;0.35;;;;;;;2.97;90.48;99175.19;4971081;28;101446;-34
2021/12/10 05:26:47;;;;;;;1.17;0.93;;;;;;;3.00;90.31;99181.31;4971099;28;96539;-34
2021/12/10 05:29:14;;;;;;;0.85;0.38;;;;;;;3.05;90.32;99184.59;4971521;28;96725;-34
2021/12/10 05:31:43;;;;;;;0.68;0.47;;;;;;;3.06;90.25;99184.53;4972371;28;97171;-34
2021/12/10 05:34:09;;;;;;;0.73;0.60;;;;;;;3.03;90.61;99175.78;4970990;28;100694;-34
2021/12/10 05:36:35;;;;;;;0.47;0.40;;;;;;;3.02;90.17;99174.09;4970501;28;96836;-34
2021/12/10 05:39:00;;;;;;;0.63;0.35;;;;;;;3.07;90.68;99182.69;4972556;28;96806;-34
2021/12/10 05:41:26;;;;;;;0.85;0.45;;;;;;;3.07;90.38;99185.38;4972285;28;97274;-34
2021/12/10 05:43:51;;;;;;;0.80;0.35;;;;;;;3.02;90.25;99180.28;4972159;28;99127;-34
2021/12/10 05:46:17;;;;;;;0.63;0.52;;;;;;;3.04;90.24;99180.22;4970697;28;102402;-34
2021/12/10 05:48:44;;;;;;;2.53;1.00;;;;;;;3.02;90.17;99174.09;4972457;28;96725;-34
2021/12/10 05:51:10;;;;;;;0.28;0.08;;;;;;;3.00;89.84;99166.13;4970757;28;102876;-34
2021/12/10 05:53:35;;;;;;;1.60;0.45;;;;;;;3.09;90.38;99176.31;4970868;28;100739;-34
2021/12/10 05:56:01;;;;;;;6.18;0.82;;;;;;;3.11;89.93;99173.56;4972135;28;96510;-34
2021/12/10 05:58:26;;;;;;;0.65;0.30;;;;;;;3.12;90.27;99181.50;4972297;28;96827;-34
2021/12/10 06:00:55;;;;;;;0.50;0.22;;;;;;;3.11;89.94;99179.75;4971770;28;97248;-34
2021/12/10 06:03:23;;;;;;;0.10;0.10;;;;;;;3.02;89.88;99163.38;4970136;28;101364;-34
2021/12/10 06:05:49;;;;;;;1.33;0.98;;;;;;;3.03;89.78;99167.75;4972931;28;96476;-34
2021/12/10 06:08:15;;;;;;;0.32;0.25;;;;;;;3.03;89.95;99165.09;4975499;28;98073;-34
2021/12/10 06:10:42;;;;;;;0.43;0.25;;;;;;;3.01;90.69;99178.56;4973900;28;99643;-35
2021/12/10 06:13:08;;;;;;;0.43;0.25;;;;;;;3.05;90.42;99173.91;4974035;28;100962;-34
2021/12/10 06:15:36;;;;;;;2.05;0.55;;;;;;;3.03;90.15;99181.13;4974022;28;96515;-34
2021/12/10 06:18:02;;;;;;;0.25;0.22;;;;;;;3.04;90.51;99177.53;4975846;28;96725;-34
2021/12/10 06:20:31;;;;;;;1.58;0.55;;;;;;;3.06;90.13;99183.66;4973867;28;100772;-34
2021/12/10 06:22:59;;;;;;;0.40;0.30;;;;;;;3.01;90.19;99173.22;4973718;28;101114;-34
2021/12/10 06:25:25;;;;;;;0.60;0.40;;;;;;;3.06;90.39;99184.53;4973490;28;97624;-35
2021/12/10 06:27:51;;;;;;;0.32;0.25;;;;;;;3.03;90.40;99175.78;4975361;28;96805;-34
2021/12/10 06:30:20;;;;;;;0.63;0.32;;;;;;;3.02;90.62;99171.41;4975088;28;98054;-34
2021/12/10 06:32:47;;;;;;;0.63;0.47;;;;;;;3.03;90.39;99181.13;4973404;28;100493;-34
2021/12/10 06:35:15;;;;;;;0.75;0.68;;;;;;;2.98;90.43;99170.75;4973812;28;96491;-34
2021/12/10 06:37:42;;;;;;;0.10;0.10;;;;;;;2.96;90.63;99173.50;4973514;28;96784;-34
2021/12/10 06:40:12;;;;;;;0.65;0.60;;;;;;;3.00;90.45;99175.97;4973602;28;100681;-34
2021/12/10 06:42:38;;;;;;;0.17;0.13;;;;;;;2.93;90.24;99167.44;4973829;28;100968;-34
2021/12/10 06:45:07;;;;;;;2.35;0.40;;;;;;;3.04;90.80;99177.53;4975191;28;96410;-34
2021/12/10 06:47:33;;;;;;;0.43;0.30;;;;;;;3.03;90.57;99174.00;4973472;28;96819;-34
2021/12/10 06:49:59;;;;;;;6.88;0.68;;;;;;;3.04;90.83;99178.38;4973742;28;102481;-34
2021/12/10 06:52:25;;;;;;;1.40;0.55;;;;;;;3.05;90.68;99188.16;4973351;28;100482;-34
2021/12/10 06:54:50;;;;;;;1.67;1.40;;;;;;;3.01;90.83;99173.22;4974438;28;96658;-34
2021/12/10 06:57:24;;;;;;;0.20;0.20;;;;;;;2.98;90.45;99181.44;4975059;28;96702;-34
2021/12/10 06:59:50;;;;;;;0.28;0.17;;;;;;;3.01;90.30;99185.75;4974704;28;96891;-34
2021/12/10 07:02:15;;;;;;;1.00;0.63;;;;;;;3.05;90.07;99192.63;4974015;28;99062;-34
2021/12/10 07:04:41;;;;;;;0.30;0.20;;;;;;;3.06;90.36;99197.03;4974801;28;96680;-34
2021/12/10 07:07:21;;;;;;;0.75;0.68;;;;;;;2.98;90.30;99181.44;4975126;28;96780;-34
2021/12/10 07:09:47;;;;;;;0.80;0.47;;;;;;;3.01;90.79;99188.41;4973874;28;116693;-34
2021/12/10 07:12:12;;;;;;;0.47;0.47;;;;;;;3.05;90.21;99195.28;4973942;28;117340;-34
2021/12/10 07:14:38;;;;;;;0.17;0.17;;;;;;;2.95;90.40;99192.28;4974110;28;96486;-34
2021/12/10 07:17:10;;;;;;;1.88;0.95;;;;;;;2.92;90.67;99184.44;4973884;28;96789;-34
2021/12/10 07:19:36;;;;;;;;;;;;;;;2.99;90.58;99196.53;4974943;28;98047;-34
2021/12/10 07:22:02;;;;;;;0.05;0.05;;;;;;;2.96;90.38;99205.59;4974394;28;97781;-34
2021/12/10 07:24:27;;;;;;;1.10;0.52;;;;;;;2.91;91.02;99186.28;4972900;28;97050;-34
2021/12/10 07:26:55;;;;;;;0.15;0.15;;;;;;;2.89;90.99;99185.47;4974605;28;96692;-34
2021/12/10 07:29:21;;;;;;;0.47;0.13;;;;;;;2.90;90.98;99189.03;4974209;28;97909;-34
2021/12/10 07:31:46;;;;;;;4.35;0.52;;;;;;;2.94;90.55;99209.28;4973923;28;99201;-34
2021/12/10 07:34:12;;;;;;;0.40;0.25;;;;;;;2.91;91.00;99207.66;4972925;28;96719;-34
2021/12/10 07:36:38;;;;;;;2.03;0.57;;;;;;;2.96;91.03;99218.09;4974044;28;96779;-34
2021/12/10 07:39:05;;;;;;;0.35;0.15;;;;;;;2.92;90.61;99211.19;4973601;28;97806;-34
2021/12/10 07:41:31;;;;;;;0.20;0.20;;;;;;;2.90;90.76;99202.38;4972542;28;101046;-34
2021/12/10 07:43:56;;;;;;;0.35;0.35;;;;;;;2.89;91.23;99211.38;4974179;28;96498;-34
2021/12/10 07:46:24;;;;;;;0.15;0.15;;;;;;;2.88;90.81;99212.31;4973882;28;96765;-34
2021/12/10 07:49:15;;;;;;;0.22;0.22;;;;;;;2.79;90.76;99204.78;4972339;28;101400;-35
2021/12/10 07:51:44;;;;;;;0.28;0.25;;;;;;;2.87;90.73;99218.63;4972407;28;100791;-34
2021/12/10 07:54:11;;;;;;;0.63;0.50;;;;;;;2.84;90.89;99208.09;4973750;28;96547;-35
2021/12/10 07:56:37;;;;;;;0.28;0.28;;;;;;;2.85;90.94;99209.81;4973877;28;96728;-34
2021/12/10 07:59:03;;;;;;;0.77;0.70;;;;;;;2.85;91.21;99209.81;4973910;28;97383;-34
2021/12/10 08:01:30;;;;;;;0.47;0.47;;;;;;;2.87;90.84;99222.13;4973096;28;97774;-35
2021/12/10 08:03:57;;;;;;;0.28;0.22;;;;;;;2.84;91.07;99214.31;4971809;28;97537;-34
2021/12/10 08:06:24;;;;;;;0.40;0.40;;;;;;;2.89;91.32;99211.38;4972229;28;96669;-34
2021/12/10 08:08:50;;;;;;;0.25;0.25;;;;;;;2.85;91.25;99205.31;4972162;28;101176;-34
2021/12/10 08:11:22;;;;;;;4.38;0.98;;;;;;;2.86;91.31;99217.75;4973704;28;97324;-34
2021/12/10 08:13:48;;;;;;;4.20;0.85;;;;;;;2.89;90.96;99220.25;4972208;28;96711;-34
2021/12/10 08:16:15;;;;;;;10.27;0.77;;;;;;;2.92;90.71;99222.75;4972224;28;96630;-34
2021/12/10 08:18:40;;;;;;;0.75;0.43;;;;;;;2.92;91.12;99216.53;4972078;28;101185;-34
2021/12/10 08:21:06;;;;;;;1.17;0.85;;;;;;;2.87;90.95;99208.78;4973649;28;99528;-34
2021/12/10 08:23:31;;;;;;;1.80;0.77;;;;;;;2.96;90.97;99228.78;4973121;28;96502;-35
2021/12/10 08:25:57;;;;;;;1.20;0.60;;;;;;;2.95;90.64;99229.72;4971824;28;96719;-34
2021/12/10 08:28:26;;;;;;;0.80;0.60;;;;;;;2.96;90.95;99228.78;4971674;28;99182;-35
2021/12/10 08:30:53;;;;;;;1.52;1.23;;;;;;;3.03;91.02;99229.28;4972967;28;99339;-34
2021/12/10 08:33:19;;;;;;;4.75;1.40;;;;;;;2.95;90.74;99219.03;4971704;28;96869;-34
2021/12/10 08:35:51;;;;;;;1.38;0.55;;;;;;;2.93;90.99;99226.28;4971739;28;96784;-34
2021/12/10 08:38:16;;;;;;;2.25;1.38;;;;;;;2.98;90.71;99232.25;4972801;28;99207;-34
2021/12/10 08:40:46;;;;;;;2.13;1.05;;;;;;;2.98;91.03;99233.09;4972960;28;99185;-34
2021/12/10 08:43:11;;;;;;;1.02;0.45;;;;;;;2.98;90.56;99235.78;4971699;28;96746;-34
2021/12/10 08:45:52;;;;;;;0.60;0.60;;;;;;;3.01;91.01;99245.44;4973468;28;96739;-35
2021/12/10 08:48:22;;;;;;;0.93;0.60;;;;;;;2.96;91.11;99240.34;4972813;28;99220;-35
2021/12/10 08:50:47;;;;;;;1.05;0.25;;;;;;;3.02;90.91;99254.31;4971201;28;101165;-34
2021/12/10 08:53:13;;;;;;;11.32;0.90;;;;;;;3.00;91.01;99240.16;4972657;28;96559;-34
2021/12/10 08:55:44;;;;;;;2.17;1.23;;;;;;;3.01;90.96;99255.28;4972455;28;96764;-35
2021/12/10 08:58:09;;;;;;;0.17;0.17;;;;;;;2.98;90.88;99257.19;4971614;28;100548;-34
2021/12/10 09:00:36;;;;;;;0.85;0.43;;;;;;;2.94;91.29;99239.56;4972860;28;97762;-34
2021/12/10 09:03:01;;;;;;;1.75;0.90;;;;;;;2.98;91.19;99246.47;4970822;28;96819;-34
2021/12/10 09:05:28;;;;;;;0.77;0.52;;;;;;;2.90;91.28;99239.81;4972750;28;96702;-35
2021/12/10 09:07:53;;;;;;;1.38;0.70;;;;;;;2.92;91.04;99254.84;4971397;28;100983;-35
2021/12/10 09:10:23;;;;;;;0.73;0.57;;;;;;;2.94;90.84;99257.44;4972628;28;104456;-34
2021/12/10 09:12:50;;;;;;;0.75;0.30;;;;;;;2.89;90.84;99257.69;4971342;28;96548;-34
2021/12/10 09:15:19;;;;;;;0.17;0.17;;;;;;;2.98;91.02;99265.19;4971376;28;96790;-34
2021/12/10 09:17:47;;;;;;;0.47;0.32;;;;;;;2.98;90.72;99275.03;4970530;28;100852;-34
2021/12/10 09:20:17;;;;;;;0.35;0.17;;;;;;;2.94;90.94;99273.47;4970959;28;101259;-34
2021/12/10 09:22:43;;;;;;;1.45;0.68;;;;;;;2.90;91.31;99266.56;4971251;28;96607;-34
2021/12/10 09:25:10;;;;;;;0.70;0.63;;;;;;;2.92;91.18;99267.34;4972765;28;96559;-34
2021/12/10 09:27:37;;;;;;;0.95;0.47;;;;;;;2.95;90.94;99281.41;4971018;28;100892;-34
2021/12/10 09:30:06;;;;;;;0.57;0.50;;;;;;;2.96;91.23;99291.16;4970927;28;100749;-34
2021/12/10 09:32:31;;;;;;;0.77;0.50;;;;;;;2.97;91.08;99279.50;4970541;28;96672;-35
2021/12/10 09:35:02;;;;;;;4.80;0.63;;;;;;;2.93;90.85;99280.66;4973108;28;96701;-34
2021/12/10 09:37:28;;;;;;;1.70;0.77;;;;;;;2.93;91.53;99287.78;4972559;28;97861;-34
2021/12/10 09:39:54;;;;;;;0.30;0.30;;;;;;;2.95;91.50;99284.06;4970805;28;100636;-34
2021/12/10 09:42:22;;;;;;;3.05;0.90;;;;;;;3.01;91.41;99298.06;4971800;28;102240;-35
2021/12/10 09:44:53;;;;;;;0.55;0.43;;;;;;;3.03;91.23;99299.72;4970893;28;96846;-34
2021/12/10 09:47:20;;;;;;;0.30;0.27;;;;;;;2.97;91.02;99300.03;4970880;28;100894;-34
2021/12/10 09:49:49;;;;;;;1.02;0.80;;;;;;;3.03;91.08;99306.84;4970837;28;101054;-34
2021/12/10 09:52:19;;;;;;;2.15;0.95;;;;;;;3.04;91.11;99305.91;4970844;28;96555;-35
2021/12/10 09:54:45;;;;;;;3.35;1.65;;;;;;;3.01;91.06;99300.75;4970639;28;96878;-34
2021/12/10 09:57:14;;;;;;;2.38;1.90;;;;;;;3.08;91.10;99307.47;4970625;28;100785;-34
2021/12/10 09:59:42;;;;;;;7.07;1.88;;;;;;;3.07;90.97;99301.25;4971463;28;114973;-35
2021/12/10 10:02:11;;;;;;;8.25;1.70;;;;;;;3.11;91.19;99309.97;4970154;28;96744;-35
2021/12/10 10:04:38;;;;;;;2.20;1.27;;;;;;;3.07;91.12;99303.91;4970737;28;97690;-34
2021/12/10 10:07:10;;;;;;;0.63;0.45;;;;;;;3.01;91.17;99306.94;4970085;28;100950;-34
2021/12/10 10:09:37;;;;;;;1.35;0.80;;;;;;;3.06;91.61;99312.91;4971982;28;99339;-35
2021/12/10 10:12:12;;;;;;;0.82;0.47;;;;;;;3.04;91.63;99312.13;4970624;28;96754;-34
2021/12/10 10:14:38;;;;;;;2.40;0.98;;;;;;;3.12;91.59;99319.72;4970729;28;96770;-34
2021/12/10 10:17:06;;;;;;;1.67;1.42;;;;;;;3.12;91.33;99322.38;4970390;28;101127;-34
2021/12/10 10:19:31;;;;;;;2.17;1.00;;;;;;;3.14;91.63;99317.81;4970454;28;100786;-34
2021/12/10 10:21:58;;;;;;;0.63;0.55;;;;;;;3.16;91.11;99318.59;4972199;28;96476;-34
2021/12/10 10:24:26;;;;;;;0.90;0.60;;;;;;;3.16;91.01;99315.94;4970899;28;96985;-34
2021/12/10 10:26:59;;;;;;;0.95;0.55;;;;;;;3.09;91.47;99317.22;4970361;28;100785;-35
2021/12/10 10:29:28;;;;;;;7.15;1.23;;;;;;;3.14;91.74;99329.38;4970385;28;100918;-34
2021/12/10 10:32:07;;;;;;;1.92;0.75;;;;;;;3.06;91.56;99320.06;4969873;28;96589;-35
2021/12/10 10:34:33;;;;;;;1.45;0.65;;;;;;;3.10;91.39;99321.59;4971641;28;96539;-34
2021/12/10 10:36:58;;;;;;;1.73;1.00;;;;;;;3.12;91.56;99323.28;4971623;28;97897;-34
2021/12/10 10:39:34;;;;;;;0.50;0.50;;;;;;;3.15;91.41;99324.91;4971589;28;97811;-35
2021/12/10 10:42:04;;;;;;;0.73;0.47;;;;;;;3.10;91.20;99317.16;4971758;28;96693;-34
2021/12/10 10:44:30;;;;;;;7.30;1.10;;;;;;;3.14;91.02;99325.84;4970353;28;98368;-34
2021/12/10 10:46:58;;;;;;;1.00;0.50;;;;;;;3.14;91.49;99324.03;4971664;28;97780;-34
2021/12/10 10:49:35;;;;;;;2.92;1.10;;;;;;;3.13;91.48;99325.00;4970380;28;100756;-34
2021/12/10 10:52:23;;;;;;;0.15;0.15;;;;;;;3.19;91.14;99334.47;4972491;28;96586;-34
2021/12/10 10:54:50;;;;;;;1.63;1.05;;;;;;;3.23;90.92;99338.72;4973201;28;96848;-35
2021/12/10 10:57:25;;;;;;;1.15;0.75;;;;;;;3.23;91.05;99336.03;4972964;28;100519;-34
2021/12/10 10:59:56;;;;;;;2.47;1.10;;;;;;;3.21;90.91;99337.94;4974804;28;97821;-35
2021/12/10 11:02:24;;;;;;;0.93;0.57;;;;;;;3.13;91.01;99333.03;4972939;28;96929;-34
2021/12/10 11:04:52;;;;;;;2.20;1.27;;;;;;;3.21;90.85;99337.94;4973352;28;96830;-35
2021/12/10 11:07:22;;;;;;;0.28;0.20;;;;;;;3.15;91.27;99325.78;4973034;28;100881;-34
2021/12/10 11:10:02;;;;;;;2.28;0.68;;;;;;;3.24;91.13;99343.09;4974750;28;97897;-34
2021/12/10 11:12:34;;;;;;;0.88;0.65;;;;;;;3.23;90.78;99335.19;4974629;28;96578;-34
2021/12/10 11:15:01;;;;;;;;;;;;;;;3.24;90.71;99350.28;4975315;28;96618;-34
2021/12/10 11:17:26;;;;;;;0.95;0.45;;;;;;;3.24;90.79;99348.47;4974523;28;97914;-35
2021/12/10 11:19:54;;;;;;;0.43;0.43;;;;;;;3.27;90.98;99352.81;4974221;28;102181;-35
2021/12/10 11:22:22;;;;;;;0.13;0.13;;;;;;;3.22;90.74;99337.00;4973839;28;96509;-34
2021/12/10 11:24:54;;;;;;;6.85;0.95;;;;;;;3.33;90.84;99355.13;4972832;28;96780;-35
2021/12/10 11:27:27;;;;;;;1.60;0.52;;;;;;;3.29;90.75;99351.78;4972938;28;101023;-34
2021/12/10 11:30:01;;;;;;;1.02;0.77;;;;;;;3.31;90.68;99357.00;4972729;28;100754;-34
2021/12/10 11:32:50;;;;;;;0.68;0.68;;;;;;;3.28;90.34;99357.19;4973960;28;96764;-34
2021/12/10 11:35:29;;;;;;;1.15;0.75;;;;;;;3.36;90.68;99362.97;4972917;28;96667;-34
2021/12/10 11:38:29;;;;;;;2.05;0.77;;;;;;;3.34;90.45;99351.50;4972654;28;100549;-34
2021/12/10 11:40:58;;;;;;;1.13;0.57;;;;;;;3.46;90.18;99366.03;4974309;28;97796;-34
2021/12/10 11:43:52;;;;;;;0.85;0.60;;;;;;;3.45;90.34;99365.13;4972587;28;96552;-34
2021/12/10 11:46:44;;;;;;;0.57;0.50;;;;;;;3.48;90.05;99375.69;4972761;28;96623;-34
2021/12/10 11:49:09;;;;;;;0.90;0.63;;;;;;;3.44;90.22;99366.09;4973527;28;98158;-34
2021/12/10 11:51:43;;;;;;;1.90;1.35;;;;;;;3.44;89.89;99366.09;4973815;28;103188;-34
2021/12/10 11:54:19;;;;;;;1.17;1.05;;;;;;;3.48;90.08;99362.31;4972084;28;96766;-34
2021/12/10 12:00:18;;;;;;;0.75;0.55;;;;;;;3.47;90.22;99378.44;4990725;28;97025;-34